sensor_id;sensor_type;location;lat;lon;timestamp;P1;durP1;ratioP1;P2;durP2;ratioP2
49366;SDS011;35245;52.026;8.540;2023-04-16T00:01:54;54.95;;;37.00;;
49366;SDS011;35245;52.026;8.540;2023-04-16T00:04:21;53.47;;;36.20;;
49366;SDS011;35245;52.026;8.540;2023-04-16T00:06:48;51.58;;;35.63;;
49366;SDS011;35245;52.026;8.540;2023-04-16T00:09:15;53.30;;;37.33;;
49366;SDS011;35245;52.026;8.540;2023-04-16T00:11:42;53.97;;;37.40;;
49366;SDS011;35245;52.026;8.540;2023-04-16T00:14:10;52.30;;;38.50;;
49366;SDS011;35245;52.026;8.540;2023-04-16T00:16:37;47.30;;;34.65;;
49366;SDS011;35245;52.026;8.540;2023-04-16T00:19:04;51.45;;;35.70;;
49366;SDS011;35245;52.026;8.540;2023-04-16T00:21:31;50.83;;;36.15;;
49366;SDS011;35245;52.026;8.540;2023-04-16T00:23:58;49.40;;;34.80;;
49366;SDS011;35245;52.026;8.540;2023-04-16T00:26:25;46.85;;;33.13;;
49366;SDS011;35245;52.026;8.540;2023-04-16T00:28:52;54.22;;;36.30;;
49366;SDS011;35245;52.026;8.540;2023-04-16T00:31:26;52.03;;;36.60;;
49366;SDS011;35245;52.026;8.540;2023-04-16T00:33:53;50.00;;;35.03;;
49366;SDS011;35245;52.026;8.540;2023-04-16T00:36:21;49.92;;;36.00;;
49366;SDS011;35245;52.026;8.540;2023-04-16T00:38:49;56.03;;;37.50;;
49366;SDS011;35245;52.026;8.540;2023-04-16T00:41:16;54.88;;;38.30;;
49366;SDS011;35245;52.026;8.540;2023-04-16T00:43:43;56.33;;;38.42;;
49366;SDS011;35245;52.026;8.540;2023-04-16T00:46:10;52.05;;;38.13;;
49366;SDS011;35245;52.026;8.540;2023-04-16T00:48:38;51.90;;;37.53;;
49366;SDS011;35245;52.026;8.540;2023-04-16T00:51:06;46.97;;;34.15;;
49366;SDS011;35245;52.026;8.540;2023-04-16T00:53:34;53.03;;;36.75;;
49366;SDS011;35245;52.026;8.540;2023-04-16T00:56:01;52.17;;;37.55;;
49366;SDS011;35245;52.026;8.540;2023-04-16T00:58:29;53.40;;;35.65;;
49366;SDS011;35245;52.026;8.540;2023-04-16T01:00:56;50.60;;;35.08;;
49366;SDS011;35245;52.026;8.540;2023-04-16T01:03:26;50.95;;;36.50;;
49366;SDS011;35245;52.026;8.540;2023-04-16T01:06:01;51.75;;;38.28;;
49366;SDS011;35245;52.026;8.540;2023-04-16T01:08:28;53.60;;;37.75;;
49366;SDS011;35245;52.026;8.540;2023-04-16T01:10:55;51.28;;;37.47;;
49366;SDS011;35245;52.026;8.540;2023-04-16T01:13:22;54.95;;;38.60;;
49366;SDS011;35245;52.026;8.540;2023-04-16T01:15:49;50.80;;;37.53;;
49366;SDS011;35245;52.026;8.540;2023-04-16T01:18:17;55.17;;;38.22;;
49366;SDS011;35245;52.026;8.540;2023-04-16T01:20:46;49.40;;;34.60;;
49366;SDS011;35245;52.026;8.540;2023-04-16T01:23:14;51.53;;;38.95;;
49366;SDS011;35245;52.026;8.540;2023-04-16T01:25:42;50.25;;;37.30;;
49366;SDS011;35245;52.026;8.540;2023-04-16T01:28:09;53.03;;;38.97;;
49366;SDS011;35245;52.026;8.540;2023-04-16T01:30:36;50.92;;;37.13;;
49366;SDS011;35245;52.026;8.540;2023-04-16T01:33:03;56.38;;;40.83;;
49366;SDS011;35245;52.026;8.540;2023-04-16T01:35:31;48.20;;;37.53;;
49366;SDS011;35245;52.026;8.540;2023-04-16T01:37:59;48.03;;;36.13;;
49366;SDS011;35245;52.026;8.540;2023-04-16T01:40:26;57.28;;;39.22;;
49366;SDS011;35245;52.026;8.540;2023-04-16T01:42:53;53.85;;;38.17;;
49366;SDS011;35245;52.026;8.540;2023-04-16T01:45:20;50.13;;;34.88;;
49366;SDS011;35245;52.026;8.540;2023-04-16T01:47:47;53.17;;;39.55;;
49366;SDS011;35245;52.026;8.540;2023-04-16T01:50:15;49.08;;;36.78;;
49366;SDS011;35245;52.026;8.540;2023-04-16T01:52:42;43.50;;;35.05;;
49366;SDS011;35245;52.026;8.540;2023-04-16T01:55:10;45.85;;;34.75;;
49366;SDS011;35245;52.026;8.540;2023-04-16T01:57:37;49.90;;;37.35;;
49366;SDS011;35245;52.026;8.540;2023-04-16T02:00:05;45.88;;;34.42;;
49366;SDS011;35245;52.026;8.540;2023-04-16T02:02:33;48.75;;;35.22;;
49366;SDS011;35245;52.026;8.540;2023-04-16T02:05:00;40.30;;;32.38;;
49366;SDS011;35245;52.026;8.540;2023-04-16T02:07:27;44.45;;;34.50;;
49366;SDS011;35245;52.026;8.540;2023-04-16T02:09:55;43.55;;;34.25;;
49366;SDS011;35245;52.026;8.540;2023-04-16T02:12:24;40.55;;;32.60;;
49366;SDS011;35245;52.026;8.540;2023-04-16T02:14:51;44.50;;;32.53;;
49366;SDS011;35245;52.026;8.540;2023-04-16T02:17:18;46.65;;;34.15;;
49366;SDS011;35245;52.026;8.540;2023-04-16T02:19:45;45.95;;;33.92;;
49366;SDS011;35245;52.026;8.540;2023-04-16T02:22:12;46.83;;;33.35;;
49366;SDS011;35245;52.026;8.540;2023-04-16T02:24:39;40.92;;;31.77;;
49366;SDS011;35245;52.026;8.540;2023-04-16T02:27:06;46.75;;;34.25;;
49366;SDS011;35245;52.026;8.540;2023-04-16T02:29:34;38.38;;;31.10;;
49366;SDS011;35245;52.026;8.540;2023-04-16T02:32:01;41.30;;;31.90;;
49366;SDS011;35245;52.026;8.540;2023-04-16T02:34:28;44.42;;;33.83;;
49366;SDS011;35245;52.026;8.540;2023-04-16T02:36:55;39.78;;;32.38;;
49366;SDS011;35245;52.026;8.540;2023-04-16T02:39:23;48.13;;;34.85;;
49366;SDS011;35245;52.026;8.540;2023-04-16T02:41:50;40.25;;;32.53;;
49366;SDS011;35245;52.026;8.540;2023-04-16T02:44:17;39.45;;;31.45;;
49366;SDS011;35245;52.026;8.540;2023-04-16T02:46:45;42.25;;;31.95;;
49366;SDS011;35245;52.026;8.540;2023-04-16T02:49:12;42.10;;;31.23;;
49366;SDS011;35245;52.026;8.540;2023-04-16T02:51:39;44.88;;;32.78;;
49366;SDS011;35245;52.026;8.540;2023-04-16T02:54:05;44.72;;;33.45;;
49366;SDS011;35245;52.026;8.540;2023-04-16T02:56:32;45.58;;;33.78;;
49366;SDS011;35245;52.026;8.540;2023-04-16T02:58:59;41.25;;;33.22;;
49366;SDS011;35245;52.026;8.540;2023-04-16T03:01:26;46.83;;;34.72;;
49366;SDS011;35245;52.026;8.540;2023-04-16T03:03:55;46.22;;;34.13;;
49366;SDS011;35245;52.026;8.540;2023-04-16T03:06:22;42.58;;;31.48;;
49366;SDS011;35245;52.026;8.540;2023-04-16T03:08:48;39.42;;;31.83;;
49366;SDS011;35245;52.026;8.540;2023-04-16T03:11:15;42.05;;;31.90;;
49366;SDS011;35245;52.026;8.540;2023-04-16T03:13:43;41.13;;;32.33;;
49366;SDS011;35245;52.026;8.540;2023-04-16T03:16:10;40.63;;;31.67;;
49366;SDS011;35245;52.026;8.540;2023-04-16T03:18:37;37.25;;;29.70;;
49366;SDS011;35245;52.026;8.540;2023-04-16T03:21:05;39.85;;;32.30;;
49366;SDS011;35245;52.026;8.540;2023-04-16T03:23:32;45.60;;;33.45;;
49366;SDS011;35245;52.026;8.540;2023-04-16T03:25:59;43.40;;;33.10;;
49366;SDS011;35245;52.026;8.540;2023-04-16T03:28:26;44.80;;;33.50;;
49366;SDS011;35245;52.026;8.540;2023-04-16T03:30:53;35.67;;;29.83;;
49366;SDS011;35245;52.026;8.540;2023-04-16T03:33:20;39.53;;;31.42;;
49366;SDS011;35245;52.026;8.540;2023-04-16T03:35:53;39.75;;;32.70;;
49366;SDS011;35245;52.026;8.540;2023-04-16T03:38:22;41.92;;;32.13;;
49366;SDS011;35245;52.026;8.540;2023-04-16T03:40:49;43.55;;;33.78;;
49366;SDS011;35245;52.026;8.540;2023-04-16T03:43:16;44.42;;;33.58;;
49366;SDS011;35245;52.026;8.540;2023-04-16T03:45:43;37.78;;;30.55;;
49366;SDS011;35245;52.026;8.540;2023-04-16T03:48:10;45.50;;;35.33;;
49366;SDS011;35245;52.026;8.540;2023-04-16T03:50:37;41.95;;;33.17;;
49366;SDS011;35245;52.026;8.540;2023-04-16T03:53:04;41.42;;;33.25;;
49366;SDS011;35245;52.026;8.540;2023-04-16T03:55:33;47.17;;;34.45;;
49366;SDS011;35245;52.026;8.540;2023-04-16T03:58:00;47.60;;;35.13;;
49366;SDS011;35245;52.026;8.540;2023-04-16T04:00:29;42.63;;;32.83;;
49366;SDS011;35245;52.026;8.540;2023-04-16T04:02:56;44.53;;;34.72;;
49366;SDS011;35245;52.026;8.540;2023-04-16T04:05:23;44.03;;;33.47;;
49366;SDS011;35245;52.026;8.540;2023-04-16T04:07:50;41.30;;;32.50;;
49366;SDS011;35245;52.026;8.540;2023-04-16T04:10:17;40.63;;;32.03;;
49366;SDS011;35245;52.026;8.540;2023-04-16T04:12:45;41.85;;;32.45;;
49366;SDS011;35245;52.026;8.540;2023-04-16T04:15:12;40.58;;;32.33;;
49366;SDS011;35245;52.026;8.540;2023-04-16T04:17:39;37.60;;;30.48;;
49366;SDS011;35245;52.026;8.540;2023-04-16T04:20:06;39.78;;;30.88;;
49366;SDS011;35245;52.026;8.540;2023-04-16T04:22:33;41.95;;;32.33;;
49366;SDS011;35245;52.026;8.540;2023-04-16T04:25:00;38.30;;;30.10;;
49366;SDS011;35245;52.026;8.540;2023-04-16T04:27:27;42.95;;;31.90;;
49366;SDS011;35245;52.026;8.540;2023-04-16T04:29:56;43.63;;;33.10;;
49366;SDS011;35245;52.026;8.540;2023-04-16T04:32:23;38.35;;;29.80;;
49366;SDS011;35245;52.026;8.540;2023-04-16T04:34:50;40.60;;;31.63;;
49366;SDS011;35245;52.026;8.540;2023-04-16T04:37:17;43.53;;;34.30;;
49366;SDS011;35245;52.026;8.540;2023-04-16T04:39:44;43.88;;;34.28;;
49366;SDS011;35245;52.026;8.540;2023-04-16T04:42:10;48.22;;;33.22;;
49366;SDS011;35245;52.026;8.540;2023-04-16T04:44:37;43.65;;;33.47;;
49366;SDS011;35245;52.026;8.540;2023-04-16T04:47:06;42.83;;;33.15;;
49366;SDS011;35245;52.026;8.540;2023-04-16T04:49:33;40.28;;;31.58;;
49366;SDS011;35245;52.026;8.540;2023-04-16T04:52:00;45.78;;;33.70;;
49366;SDS011;35245;52.026;8.540;2023-04-16T04:54:27;42.03;;;32.58;;
49366;SDS011;35245;52.026;8.540;2023-04-16T04:56:54;44.05;;;33.50;;
49366;SDS011;35245;52.026;8.540;2023-04-16T04:59:21;40.83;;;33.03;;
49366;SDS011;35245;52.026;8.540;2023-04-16T05:01:48;39.40;;;30.73;;
49366;SDS011;35245;52.026;8.540;2023-04-16T05:04:17;44.65;;;33.45;;
49366;SDS011;35245;52.026;8.540;2023-04-16T05:06:43;40.08;;;31.80;;
49366;SDS011;35245;52.026;8.540;2023-04-16T05:09:10;43.17;;;32.45;;
49366;SDS011;35245;52.026;8.540;2023-04-16T05:11:37;40.50;;;31.20;;
49366;SDS011;35245;52.026;8.540;2023-04-16T05:14:05;39.97;;;32.75;;
49366;SDS011;35245;52.026;8.540;2023-04-16T05:16:34;44.13;;;32.13;;
49366;SDS011;35245;52.026;8.540;2023-04-16T05:19:02;43.60;;;33.90;;
49366;SDS011;35245;52.026;8.540;2023-04-16T05:21:30;45.25;;;34.03;;
49366;SDS011;35245;52.026;8.540;2023-04-16T05:23:57;40.70;;;33.13;;
49366;SDS011;35245;52.026;8.540;2023-04-16T05:26:24;44.22;;;34.13;;
49366;SDS011;35245;52.026;8.540;2023-04-16T05:28:51;44.85;;;32.85;;
49366;SDS011;35245;52.026;8.540;2023-04-16T05:31:18;46.15;;;34.10;;
49366;SDS011;35245;52.026;8.540;2023-04-16T05:33:45;41.30;;;32.88;;
49366;SDS011;35245;52.026;8.540;2023-04-16T05:36:12;39.75;;;31.25;;
49366;SDS011;35245;52.026;8.540;2023-04-16T05:38:40;43.42;;;33.20;;
49366;SDS011;35245;52.026;8.540;2023-04-16T05:41:07;47.40;;;33.65;;
49366;SDS011;35245;52.026;8.540;2023-04-16T05:43:34;44.75;;;32.65;;
49366;SDS011;35245;52.026;8.540;2023-04-16T05:46:00;44.65;;;33.90;;
49366;SDS011;35245;52.026;8.540;2023-04-16T05:48:27;42.90;;;31.92;;
49366;SDS011;35245;52.026;8.540;2023-04-16T05:50:55;40.83;;;33.38;;
49366;SDS011;35245;52.026;8.540;2023-04-16T05:53:22;46.58;;;35.65;;
49366;SDS011;35245;52.026;8.540;2023-04-16T05:55:50;44.53;;;33.40;;
49366;SDS011;35245;52.026;8.540;2023-04-16T05:58:17;42.45;;;34.20;;
49366;SDS011;35245;52.026;8.540;2023-04-16T06:00:44;47.60;;;34.47;;
49366;SDS011;35245;52.026;8.540;2023-04-16T06:03:11;44.40;;;31.90;;
49366;SDS011;35245;52.026;8.540;2023-04-16T06:05:38;45.63;;;35.15;;
49366;SDS011;35245;52.026;8.540;2023-04-16T06:08:05;44.03;;;33.28;;
49366;SDS011;35245;52.026;8.540;2023-04-16T06:10:32;45.40;;;33.58;;
49366;SDS011;35245;52.026;8.540;2023-04-16T06:13:00;43.60;;;31.83;;
49366;SDS011;35245;52.026;8.540;2023-04-16T06:15:27;43.55;;;33.28;;
49366;SDS011;35245;52.026;8.540;2023-04-16T06:17:54;43.78;;;31.17;;
49366;SDS011;35245;52.026;8.540;2023-04-16T06:20:21;41.97;;;31.45;;
49366;SDS011;35245;52.026;8.540;2023-04-16T06:22:48;42.28;;;32.20;;
49366;SDS011;35245;52.026;8.540;2023-04-16T06:25:15;44.45;;;33.30;;
49366;SDS011;35245;52.026;8.540;2023-04-16T06:27:42;47.10;;;33.20;;
49366;SDS011;35245;52.026;8.540;2023-04-16T06:30:11;45.90;;;35.33;;
49366;SDS011;35245;52.026;8.540;2023-04-16T06:32:39;42.83;;;32.55;;
49366;SDS011;35245;52.026;8.540;2023-04-16T06:35:07;37.90;;;29.67;;
49366;SDS011;35245;52.026;8.540;2023-04-16T06:37:34;45.22;;;33.28;;
49366;SDS011;35245;52.026;8.540;2023-04-16T06:40:01;37.38;;;30.38;;
49366;SDS011;35245;52.026;8.540;2023-04-16T06:42:28;44.38;;;32.83;;
49366;SDS011;35245;52.026;8.540;2023-04-16T06:44:55;39.90;;;29.75;;
49366;SDS011;35245;52.026;8.540;2023-04-16T06:47:24;38.50;;;30.70;;
49366;SDS011;35245;52.026;8.540;2023-04-16T06:49:51;39.30;;;29.42;;
49366;SDS011;35245;52.026;8.540;2023-04-16T06:52:17;41.35;;;30.70;;
49366;SDS011;35245;52.026;8.540;2023-04-16T06:54:44;35.13;;;28.48;;
49366;SDS011;35245;52.026;8.540;2023-04-16T06:57:11;37.00;;;28.48;;
49366;SDS011;35245;52.026;8.540;2023-04-16T06:59:38;36.75;;;26.83;;
49366;SDS011;35245;52.026;8.540;2023-04-16T07:02:05;37.13;;;28.15;;
49366;SDS011;35245;52.026;8.540;2023-04-16T07:04:34;30.88;;;24.65;;
49366;SDS011;35245;52.026;8.540;2023-04-16T07:07:01;33.05;;;26.33;;
49366;SDS011;35245;52.026;8.540;2023-04-16T07:09:28;34.35;;;26.88;;
49366;SDS011;35245;52.026;8.540;2023-04-16T07:11:55;36.28;;;26.27;;
49366;SDS011;35245;52.026;8.540;2023-04-16T07:14:22;35.83;;;26.63;;
49366;SDS011;35245;52.026;8.540;2023-04-16T07:16:49;33.75;;;25.23;;
49366;SDS011;35245;52.026;8.540;2023-04-16T07:19:16;35.05;;;26.23;;
49366;SDS011;35245;52.026;8.540;2023-04-16T07:21:44;31.30;;;25.25;;
49366;SDS011;35245;52.026;8.540;2023-04-16T07:24:11;36.00;;;25.42;;
49366;SDS011;35245;52.026;8.540;2023-04-16T07:26:38;34.97;;;26.48;;
49366;SDS011;35245;52.026;8.540;2023-04-16T07:29:05;35.03;;;25.85;;
49366;SDS011;35245;52.026;8.540;2023-04-16T07:31:32;31.88;;;25.10;;
49366;SDS011;35245;52.026;8.540;2023-04-16T07:33:59;35.15;;;26.42;;
49366;SDS011;35245;52.026;8.540;2023-04-16T07:36:26;35.00;;;26.05;;
49366;SDS011;35245;52.026;8.540;2023-04-16T07:38:54;31.63;;;24.52;;
49366;SDS011;35245;52.026;8.540;2023-04-16T07:41:21;34.55;;;25.48;;
49366;SDS011;35245;52.026;8.540;2023-04-16T07:43:48;31.25;;;24.30;;
49366;SDS011;35245;52.026;8.540;2023-04-16T07:46:15;32.03;;;25.00;;
49366;SDS011;35245;52.026;8.540;2023-04-16T07:48:42;34.28;;;25.90;;
49366;SDS011;35245;52.026;8.540;2023-04-16T07:51:09;32.90;;;25.20;;
49366;SDS011;35245;52.026;8.540;2023-04-16T07:53:36;29.73;;;22.58;;
49366;SDS011;35245;52.026;8.540;2023-04-16T07:56:05;30.75;;;23.77;;
49366;SDS011;35245;52.026;8.540;2023-04-16T07:58:32;29.15;;;23.30;;
49366;SDS011;35245;52.026;8.540;2023-04-16T08:00:59;30.70;;;23.27;;
49366;SDS011;35245;52.026;8.540;2023-04-16T08:03:26;27.63;;;22.02;;
49366;SDS011;35245;52.026;8.540;2023-04-16T08:05:53;30.02;;;23.77;;
49366;SDS011;35245;52.026;8.540;2023-04-16T08:08:20;33.97;;;26.35;;
49366;SDS011;35245;52.026;8.540;2023-04-16T08:10:47;28.60;;;22.13;;
49366;SDS011;35245;52.026;8.540;2023-04-16T08:13:21;31.48;;;22.75;;
49366;SDS011;35245;52.026;8.540;2023-04-16T08:15:48;30.98;;;22.25;;
49366;SDS011;35245;52.026;8.540;2023-04-16T08:18:15;29.92;;;22.20;;
49366;SDS011;35245;52.026;8.540;2023-04-16T08:20:41;26.85;;;21.65;;
49366;SDS011;35245;52.026;8.540;2023-04-16T08:23:08;31.65;;;23.73;;
49366;SDS011;35245;52.026;8.540;2023-04-16T08:25:35;31.67;;;23.77;;
49366;SDS011;35245;52.026;8.540;2023-04-16T08:28:02;27.10;;;22.02;;
49366;SDS011;35245;52.026;8.540;2023-04-16T08:30:31;27.13;;;22.63;;
49366;SDS011;35245;52.026;8.540;2023-04-16T08:32:58;29.75;;;22.20;;
49366;SDS011;35245;52.026;8.540;2023-04-16T08:35:25;33.50;;;24.60;;
49366;SDS011;35245;52.026;8.540;2023-04-16T08:37:52;30.67;;;23.70;;
49366;SDS011;35245;52.026;8.540;2023-04-16T08:40:19;51.08;;;38.53;;
49366;SDS011;35245;52.026;8.540;2023-04-16T08:42:47;30.95;;;23.77;;
49366;SDS011;35245;52.026;8.540;2023-04-16T08:45:18;32.08;;;23.98;;
49366;SDS011;35245;52.026;8.540;2023-04-16T08:47:48;33.90;;;24.75;;
49366;SDS011;35245;52.026;8.540;2023-04-16T08:50:16;31.17;;;23.88;;
49366;SDS011;35245;52.026;8.540;2023-04-16T08:52:51;31.45;;;22.55;;
49366;SDS011;35245;52.026;8.540;2023-04-16T08:55:20;34.58;;;23.77;;
49366;SDS011;35245;52.026;8.540;2023-04-16T08:57:50;32.90;;;23.85;;
49366;SDS011;35245;52.026;8.540;2023-04-16T09:00:19;33.13;;;24.83;;
49366;SDS011;35245;52.026;8.540;2023-04-16T09:02:48;30.10;;;24.05;;
49366;SDS011;35245;52.026;8.540;2023-04-16T09:05:16;30.55;;;23.60;;
49366;SDS011;35245;52.026;8.540;2023-04-16T09:07:43;29.08;;;22.70;;
49366;SDS011;35245;52.026;8.540;2023-04-16T09:10:12;30.85;;;23.75;;
49366;SDS011;35245;52.026;8.540;2023-04-16T09:12:40;30.95;;;22.05;;
49366;SDS011;35245;52.026;8.540;2023-04-16T09:15:07;27.80;;;22.23;;
49366;SDS011;35245;52.026;8.540;2023-04-16T09:17:35;26.52;;;21.73;;
49366;SDS011;35245;52.026;8.540;2023-04-16T09:20:05;26.23;;;21.40;;
49366;SDS011;35245;52.026;8.540;2023-04-16T09:25:02;27.08;;;21.63;;
49366;SDS011;35245;52.026;8.540;2023-04-16T09:27:29;29.40;;;22.20;;
49366;SDS011;35245;52.026;8.540;2023-04-16T09:29:57;30.38;;;22.50;;
49366;SDS011;35245;52.026;8.540;2023-04-16T09:32:24;27.45;;;22.33;;
49366;SDS011;35245;52.026;8.540;2023-04-16T09:34:52;28.95;;;21.60;;
49366;SDS011;35245;52.026;8.540;2023-04-16T09:37:22;31.10;;;22.90;;
49366;SDS011;35245;52.026;8.540;2023-04-16T09:39:53;30.50;;;22.60;;
49366;SDS011;35245;52.026;8.540;2023-04-16T09:42:22;29.80;;;22.83;;
49366;SDS011;35245;52.026;8.540;2023-04-16T09:44:51;28.17;;;21.88;;
49366;SDS011;35245;52.026;8.540;2023-04-16T09:47:18;28.30;;;21.73;;
49366;SDS011;35245;52.026;8.540;2023-04-16T09:49:45;26.63;;;20.88;;
49366;SDS011;35245;52.026;8.540;2023-04-16T09:52:12;31.67;;;22.65;;
49366;SDS011;35245;52.026;8.540;2023-04-16T09:54:45;28.48;;;21.92;;
49366;SDS011;35245;52.026;8.540;2023-04-16T09:57:13;26.67;;;21.60;;
49366;SDS011;35245;52.026;8.540;2023-04-16T09:59:44;25.63;;;19.58;;
49366;SDS011;35245;52.026;8.540;2023-04-16T10:02:11;28.63;;;19.98;;
49366;SDS011;35245;52.026;8.540;2023-04-16T10:04:45;25.98;;;20.17;;
49366;SDS011;35245;52.026;8.540;2023-04-16T10:07:13;26.08;;;21.45;;
49366;SDS011;35245;52.026;8.540;2023-04-16T10:09:40;26.05;;;20.35;;
49366;SDS011;35245;52.026;8.540;2023-04-16T10:12:09;26.80;;;20.70;;
49366;SDS011;35245;52.026;8.540;2023-04-16T10:14:36;25.80;;;19.85;;
49366;SDS011;35245;52.026;8.540;2023-04-16T10:17:04;27.33;;;19.90;;
49366;SDS011;35245;52.026;8.540;2023-04-16T10:19:31;26.85;;;19.35;;
49366;SDS011;35245;52.026;8.540;2023-04-16T10:21:59;25.25;;;19.33;;
49366;SDS011;35245;52.026;8.540;2023-04-16T10:24:27;26.95;;;19.65;;
49366;SDS011;35245;52.026;8.540;2023-04-16T10:26:54;25.48;;;19.17;;
49366;SDS011;35245;52.026;8.540;2023-04-16T10:29:22;27.20;;;18.45;;
49366;SDS011;35245;52.026;8.540;2023-04-16T10:31:50;27.92;;;20.00;;
49366;SDS011;35245;52.026;8.540;2023-04-16T10:34:17;26.10;;;20.13;;
49366;SDS011;35245;52.026;8.540;2023-04-16T10:36:47;23.88;;;19.13;;
49366;SDS011;35245;52.026;8.540;2023-04-16T10:39:16;23.75;;;18.65;;
49366;SDS011;35245;52.026;8.540;2023-04-16T10:41:44;24.45;;;18.25;;
49366;SDS011;35245;52.026;8.540;2023-04-16T10:44:11;27.13;;;19.95;;
49366;SDS011;35245;52.026;8.540;2023-04-16T10:46:40;28.00;;;19.85;;
49366;SDS011;35245;52.026;8.540;2023-04-16T10:49:11;31.05;;;19.25;;
49366;SDS011;35245;52.026;8.540;2023-04-16T10:51:39;30.75;;;20.50;;
49366;SDS011;35245;52.026;8.540;2023-04-16T10:54:18;28.45;;;21.52;;
49366;SDS011;35245;52.026;8.540;2023-04-16T10:56:46;26.50;;;20.05;;
49366;SDS011;35245;52.026;8.540;2023-04-16T10:59:16;27.38;;;20.63;;
49366;SDS011;35245;52.026;8.540;2023-04-16T11:01:45;27.60;;;20.27;;
49366;SDS011;35245;52.026;8.540;2023-04-16T11:04:25;27.52;;;21.17;;
49366;SDS011;35245;52.026;8.540;2023-04-16T11:06:59;27.58;;;21.80;;
49366;SDS011;35245;52.026;8.540;2023-04-16T11:09:43;29.27;;;22.13;;
49366;SDS011;35245;52.026;8.540;2023-04-16T11:12:18;28.80;;;22.33;;
49366;SDS011;35245;52.026;8.540;2023-04-16T11:14:47;33.25;;;24.25;;
49366;SDS011;35245;52.026;8.540;2023-04-16T11:17:16;37.75;;;25.40;;
49366;SDS011;35245;52.026;8.540;2023-04-16T11:19:44;33.35;;;23.98;;
49366;SDS011;35245;52.026;8.540;2023-04-16T11:22:11;33.88;;;24.90;;
49366;SDS011;35245;52.026;8.540;2023-04-16T11:24:41;31.52;;;24.55;;
49366;SDS011;35245;52.026;8.540;2023-04-16T11:27:08;31.60;;;24.27;;
49366;SDS011;35245;52.026;8.540;2023-04-16T11:29:37;34.55;;;23.90;;
49366;SDS011;35245;52.026;8.540;2023-04-16T11:32:04;36.47;;;24.75;;
49366;SDS011;35245;52.026;8.540;2023-04-16T11:34:32;31.10;;;24.27;;
49366;SDS011;35245;52.026;8.540;2023-04-16T11:36:59;32.08;;;23.95;;
49366;SDS011;35245;52.026;8.540;2023-04-16T11:39:26;29.95;;;23.27;;
49366;SDS011;35245;52.026;8.540;2023-04-16T11:41:53;32.58;;;24.20;;
49366;SDS011;35245;52.026;8.540;2023-04-16T11:44:20;34.00;;;25.35;;
49366;SDS011;35245;52.026;8.540;2023-04-16T11:46:48;32.78;;;24.92;;
49366;SDS011;35245;52.026;8.540;2023-04-16T11:49:15;34.00;;;25.25;;
49366;SDS011;35245;52.026;8.540;2023-04-16T11:51:45;31.48;;;23.67;;
49366;SDS011;35245;52.026;8.540;2023-04-16T11:54:19;33.05;;;24.38;;
49366;SDS011;35245;52.026;8.540;2023-04-16T11:56:46;28.80;;;22.35;;
49366;SDS011;35245;52.026;8.540;2023-04-16T11:59:14;33.00;;;24.15;;
49366;SDS011;35245;52.026;8.540;2023-04-16T12:01:44;33.53;;;24.55;;
49366;SDS011;35245;52.026;8.540;2023-04-16T12:04:12;31.48;;;22.85;;
49366;SDS011;35245;52.026;8.540;2023-04-16T12:06:39;33.40;;;22.65;;
49366;SDS011;35245;52.026;8.540;2023-04-16T12:09:24;30.92;;;23.00;;
49366;SDS011;35245;52.026;8.540;2023-04-16T12:11:51;31.20;;;23.63;;
49366;SDS011;35245;52.026;8.540;2023-04-16T12:14:18;27.83;;;22.13;;
49366;SDS011;35245;52.026;8.540;2023-04-16T12:16:45;29.90;;;23.13;;
49366;SDS011;35245;52.026;8.540;2023-04-16T12:19:12;34.00;;;23.30;;
49366;SDS011;35245;52.026;8.540;2023-04-16T12:21:40;29.63;;;22.02;;
49366;SDS011;35245;52.026;8.540;2023-04-16T12:24:08;27.63;;;21.70;;
49366;SDS011;35245;52.026;8.540;2023-04-16T12:26:42;28.38;;;22.33;;
49366;SDS011;35245;52.026;8.540;2023-04-16T12:29:14;31.02;;;22.02;;
49366;SDS011;35245;52.026;8.540;2023-04-16T12:31:42;26.50;;;21.48;;
49366;SDS011;35245;52.026;8.540;2023-04-16T12:34:09;29.05;;;21.15;;
49366;SDS011;35245;52.026;8.540;2023-04-16T12:36:36;29.23;;;20.98;;
49366;SDS011;35245;52.026;8.540;2023-04-16T12:39:03;27.52;;;21.65;;
49366;SDS011;35245;52.026;8.540;2023-04-16T12:41:31;28.17;;;20.90;;
49366;SDS011;35245;52.026;8.540;2023-04-16T12:44:04;30.67;;;21.98;;
49366;SDS011;35245;52.026;8.540;2023-04-16T12:46:33;29.08;;;20.88;;
49366;SDS011;35245;52.026;8.540;2023-04-16T12:49:01;27.33;;;21.73;;
49366;SDS011;35245;52.026;8.540;2023-04-16T12:51:28;28.02;;;21.23;;
49366;SDS011;35245;52.026;8.540;2023-04-16T12:53:56;28.38;;;21.95;;
49366;SDS011;35245;52.026;8.540;2023-04-16T12:56:23;25.92;;;20.55;;
49366;SDS011;35245;52.026;8.540;2023-04-16T12:58:50;29.88;;;21.80;;
49366;SDS011;35245;52.026;8.540;2023-04-16T13:01:19;28.10;;;21.50;;
49366;SDS011;35245;52.026;8.540;2023-04-16T13:03:46;29.23;;;21.48;;
49366;SDS011;35245;52.026;8.540;2023-04-16T13:06:13;30.08;;;23.00;;
49366;SDS011;35245;52.026;8.540;2023-04-16T13:08:41;27.05;;;20.85;;
49366;SDS011;35245;52.026;8.540;2023-04-16T13:11:08;32.10;;;23.75;;
49366;SDS011;35245;52.026;8.540;2023-04-16T13:13:35;35.08;;;22.60;;
49366;SDS011;35245;52.026;8.540;2023-04-16T13:16:02;28.33;;;21.85;;
49366;SDS011;35245;52.026;8.540;2023-04-16T13:18:33;29.10;;;21.98;;
49366;SDS011;35245;52.026;8.540;2023-04-16T13:21:01;30.33;;;21.48;;
49366;SDS011;35245;52.026;8.540;2023-04-16T13:23:28;32.00;;;22.38;;
49366;SDS011;35245;52.026;8.540;2023-04-16T13:25:56;25.10;;;20.33;;
49366;SDS011;35245;52.026;8.540;2023-04-16T13:28:22;29.15;;;22.88;;
49366;SDS011;35245;52.026;8.540;2023-04-16T13:30:50;26.65;;;20.48;;
49366;SDS011;35245;52.026;8.540;2023-04-16T13:33:17;26.85;;;20.88;;
49366;SDS011;35245;52.026;8.540;2023-04-16T13:35:46;27.83;;;20.10;;
49366;SDS011;35245;52.026;8.540;2023-04-16T13:38:13;25.80;;;20.00;;
49366;SDS011;35245;52.026;8.540;2023-04-16T13:40:40;27.27;;;21.10;;
49366;SDS011;35245;52.026;8.540;2023-04-16T13:43:07;24.52;;;20.20;;
49366;SDS011;35245;52.026;8.540;2023-04-16T13:45:36;24.08;;;19.95;;
49366;SDS011;35245;52.026;8.540;2023-04-16T13:48:03;28.48;;;21.38;;
49366;SDS011;35245;52.026;8.540;2023-04-16T13:50:31;26.10;;;19.63;;
49366;SDS011;35245;52.026;8.540;2023-04-16T13:53:00;25.10;;;20.73;;
49366;SDS011;35245;52.026;8.540;2023-04-16T13:55:29;29.27;;;21.77;;
49366;SDS011;35245;52.026;8.540;2023-04-16T13:57:56;33.30;;;24.70;;
49366;SDS011;35245;52.026;8.540;2023-04-16T14:00:24;27.92;;;20.85;;
49366;SDS011;35245;52.026;8.540;2023-04-16T14:02:51;25.17;;;19.02;;
49366;SDS011;35245;52.026;8.540;2023-04-16T14:05:18;26.75;;;20.40;;
49366;SDS011;35245;52.026;8.540;2023-04-16T14:07:47;27.90;;;20.70;;
49366;SDS011;35245;52.026;8.540;2023-04-16T14:10:15;30.35;;;21.40;;
49366;SDS011;35245;52.026;8.540;2023-04-16T14:12:43;29.58;;;21.70;;
49366;SDS011;35245;52.026;8.540;2023-04-16T14:15:10;24.55;;;19.15;;
49366;SDS011;35245;52.026;8.540;2023-04-16T14:17:39;26.05;;;20.10;;
49366;SDS011;35245;52.026;8.540;2023-04-16T14:20:07;26.00;;;19.30;;
49366;SDS011;35245;52.026;8.540;2023-04-16T14:22:34;23.77;;;19.10;;
49366;SDS011;35245;52.026;8.540;2023-04-16T14:25:01;23.15;;;18.63;;
49366;SDS011;35245;52.026;8.540;2023-04-16T14:27:30;22.40;;;18.67;;